sensor_id;sensor_type;location;lat;lon;timestamp;pressure;altitude;pressure_sealevel;temperature;humidity
57668;BME280;43499;52.366;12.912;2022-09-09T00:00:37;100707.47;;;13.26;100.00
57668;BME280;43499;52.366;12.912;2022-09-09T00:02:52;100710.22;;;13.28;100.00
57668;BME280;43499;52.366;12.912;2022-09-09T00:04:25;100711.22;;;13.30;100.00
57668;BME280;43499;52.366;12.912;2022-09-09T00:08:22;100698.72;;;13.39;100.00
57668;BME280;43499;52.366;12.912;2022-09-09T00:09:29;100692.66;;;13.29;100.00
57668;BME280;43499;52.366;12.912;2022-09-09T00:10:34;100693.25;;;13.24;100.00
57668;BME280;43499;52.366;12.912;2022-09-09T00:12:15;100707.97;;;13.21;100.00
57668;BME280;43499;52.366;12.912;2022-09-09T00:13:34;100700.94;;;13.21;100.00
57668;BME280;43499;52.366;12.912;2022-09-09T00:14:51;100697.59;;;13.24;100.00
57668;BME280;43499;52.366;12.912;2022-09-09T00:17:08;100695.19;;;13.27;100.00
57668;BME280;43499;52.366;12.912;2022-09-09T00:20:03;100690.59;;;13.24;100.00
57668;BME280;43499;52.366;12.912;2022-09-09T00:21:16;100694.28;;;13.26;100.00
57668;BME280;43499;52.366;12.912;2022-09-09T00:22:20;100691.81;;;13.30;100.00
57668;BME280;43499;52.366;12.912;2022-09-09T00:23:28;100688.78;;;13.23;100.00
57668;BME280;43499;52.366;12.912;2022-09-09T00:24:38;100690.28;;;13.20;100.00
57668;BME280;43499;52.366;12.912;2022-09-09T00:27:04;100693.44;;;13.39;100.00
57668;BME280;43499;52.366;12.912;2022-09-09T00:28:16;100698.13;;;13.32;100.00
57668;BME280;43499;52.366;12.912;2022-09-09T00:29:44;100692.19;;;13.34;100.00
57668;BME280;43499;52.366;12.912;2022-09-09T00:30:47;100693.56;;;13.29;100.00
57668;BME280;43499;52.366;12.912;2022-09-09T00:31:50;100698.03;;;13.30;100.00
57668;BME280;43499;52.366;12.912;2022-09-09T00:32:55;100688.88;;;13.25;100.00
57668;BME280;43499;52.366;12.912;2022-09-09T00:34:11;100693.03;;;13.21;100.00
57668;BME280;43499;52.366;12.912;2022-09-09T00:35:25;100682.47;;;13.21;100.00
57668;BME280;43499;52.366;12.912;2022-09-09T00:36:30;100676.47;;;13.24;100.00
57668;BME280;43499;52.366;12.912;2022-09-09T00:37:34;100686.53;;;13.30;100.00
57668;BME280;43499;52.366;12.912;2022-09-09T00:38:47;100687.97;;;13.24;100.00
57668;BME280;43499;52.366;12.912;2022-09-09T00:39:51;100681.88;;;13.25;100.00
57668;BME280;43499;52.366;12.912;2022-09-09T00:42:26;100694.16;;;13.25;100.00
57668;BME280;43499;52.366;12.912;2022-09-09T00:43:39;100682.47;;;13.21;100.00
57668;BME280;43499;52.366;12.912;2022-09-09T00:44:59;100695.31;;;13.29;100.00
57668;BME280;43499;52.366;12.912;2022-09-09T00:47:53;100695.78;;;13.23;100.00
57668;BME280;43499;52.366;12.912;2022-09-09T00:50:39;100692.84;;;13.32;100.00
57668;BME280;43499;52.366;12.912;2022-09-09T00:53:22;100685.66;;;13.29;100.00
57668;BME280;43499;52.366;12.912;2022-09-09T00:54:42;100678.31;;;13.25;100.00
57668;BME280;43499;52.366;12.912;2022-09-09T00:57:30;100683.91;;;13.30;100.00
57668;BME280;43499;52.366;12.912;2022-09-09T00:58:32;100684.25;;;13.34;100.00
57668;BME280;43499;52.366;12.912;2022-09-09T00:59:58;100676.78;;;13.40;100.00
57668;BME280;43499;52.366;12.912;2022-09-09T01:01:37;100682.94;;;13.41;100.00
57668;BME280;43499;52.366;12.912;2022-09-09T01:02:54;100679.50;;;13.42;100.00
57668;BME280;43499;52.366;12.912;2022-09-09T01:03:57;100681.06;;;13.52;100.00
57668;BME280;43499;52.366;12.912;2022-09-09T01:05:07;100679.13;;;13.49;100.00
57668;BME280;43499;52.366;12.912;2022-09-09T01:06:21;100684.19;;;13.46;100.00
57668;BME280;43499;52.366;12.912;2022-09-09T01:07:23;100680.16;;;13.51;100.00
57668;BME280;43499;52.366;12.912;2022-09-09T01:08:35;100680.25;;;13.53;100.00
57668;BME280;43499;52.366;12.912;2022-09-09T01:10:00;100678.44;;;13.52;100.00
57668;BME280;43499;52.366;12.912;2022-09-09T01:11:16;100682.09;;;13.54;100.00
57668;BME280;43499;52.366;12.912;2022-09-09T01:12:38;100681.16;;;13.53;100.00
57668;BME280;43499;52.366;12.912;2022-09-09T01:13:42;100684.50;;;13.51;100.00
57668;BME280;43499;52.366;12.912;2022-09-09T01:15:17;100691.22;;;13.46;100.00
57668;BME280;43499;52.366;12.912;2022-09-09T01:16:44;100679.00;;;13.48;100.00
57668;BME280;43499;52.366;12.912;2022-09-09T01:18:06;100690.06;;;13.42;100.00
57668;BME280;43499;52.366;12.912;2022-09-09T01:19:29;100690.28;;;13.45;100.00
57668;BME280;43499;52.366;12.912;2022-09-09T01:21:16;100686.84;;;13.46;100.00
57668;BME280;43499;52.366;12.912;2022-09-09T01:24:22;100694.84;;;13.48;100.00
57668;BME280;43499;52.366;12.912;2022-09-09T01:27:19;100691.72;;;13.40;100.00
57668;BME280;43499;52.366;12.912;2022-09-09T01:28:26;100693.16;;;13.36;100.00
57668;BME280;43499;52.366;12.912;2022-09-09T01:30:44;100689.72;;;13.37;100.00
57668;BME280;43499;52.366;12.912;2022-09-09T01:32:42;100692.97;;;13.33;100.00
57668;BME280;43499;52.366;12.912;2022-09-09T01:33:45;100685.38;;;13.38;100.00
57668;BME280;43499;52.366;12.912;2022-09-09T01:34:47;100692.28;;;13.36;100.00
57668;BME280;43499;52.366;12.912;2022-09-09T01:35:53;100684.13;;;13.45;100.00
57668;BME280;43499;52.366;12.912;2022-09-09T01:37:03;100684.50;;;13.51;100.00
57668;BME280;43499;52.366;12.912;2022-09-09T01:38:08;100691.03;;;13.56;100.00
57668;BME280;43499;52.366;12.912;2022-09-09T01:39:10;100691.94;;;13.56;100.00
57668;BME280;43499;52.366;12.912;2022-09-09T01:40:11;100687.47;;;13.55;100.00
57668;BME280;43499;52.366;12.912;2022-09-09T01:41:13;100685.22;;;13.48;100.00
57668;BME280;43499;52.366;12.912;2022-09-09T01:42:26;100688.59;;;13.46;100.00
57668;BME280;43499;52.366;12.912;2022-09-09T01:43:55;100690.06;;;13.42;100.00
57668;BME280;43499;52.366;12.912;2022-09-09T01:44:59;100687.44;;;13.42;100.00
57668;BME280;43499;52.366;12.912;2022-09-09T01:46:01;100690.66;;;13.38;100.00
57668;BME280;43499;52.366;12.912;2022-09-09T01:47:12;100694.91;;;13.36;100.00
57668;BME280;43499;52.366;12.912;2022-09-09T01:48:33;100693.88;;;13.46;100.00
57668;BME280;43499;52.366;12.912;2022-09-09T01:49:59;100690.38;;;13.47;100.00
57668;BME280;43499;52.366;12.912;2022-09-09T01:51:23;100689.84;;;13.39;100.00
57668;BME280;43499;52.366;12.912;2022-09-09T01:52:32;100689.16;;;13.41;100.00
57668;BME280;43499;52.366;12.912;2022-09-09T01:53:46;100688.91;;;13.38;100.00
57668;BME280;43499;52.366;12.912;2022-09-09T01:54:52;100690.34;;;13.33;100.00
57668;BME280;43499;52.366;12.912;2022-09-09T01:56:25;100683.88;;;13.41;100.00
57668;BME280;43499;52.366;12.912;2022-09-09T02:00:30;100679.88;;;13.35;100.00
57668;BME280;43499;52.366;12.912;2022-09-09T02:03:00;100687.09;;;13.37;100.00
57668;BME280;43499;52.366;12.912;2022-09-09T02:06:20;100690.28;;;13.20;100.00
57668;BME280;43499;52.366;12.912;2022-09-09T02:07:48;100692.28;;;13.10;100.00
57668;BME280;43499;52.366;12.912;2022-09-09T02:09:11;100680.91;;;13.11;100.00
57668;BME280;43499;52.366;12.912;2022-09-09T02:10:19;100686.06;;;13.10;100.00
57668;BME280;43499;52.366;12.912;2022-09-09T02:11:29;100689.44;;;13.07;100.00
57668;BME280;43499;52.366;12.912;2022-09-09T02:12:43;100683.88;;;13.16;100.00
57668;BME280;43499;52.366;12.912;2022-09-09T02:13:48;100690.66;;;13.12;100.00
57668;BME280;43499;52.366;12.912;2022-09-09T02:14:56;100688.41;;;13.05;100.00
57668;BME280;43499;52.366;12.912;2022-09-09T02:16:06;100688.16;;;13.02;100.00
57668;BME280;43499;52.366;12.912;2022-09-09T02:17:10;100688.16;;;13.02;100.00
57668;BME280;43499;52.366;12.912;2022-09-09T02:18:57;100689.91;;;13.02;100.00
57668;BME280;43499;52.366;12.912;2022-09-09T02:20:13;100688.16;;;13.02;100.00
57668;BME280;43499;52.366;12.912;2022-09-09T02:21:29;100690.22;;;13.06;100.00
57668;BME280;43499;52.366;12.912;2022-09-09T02:22:32;100685.91;;;12.95;100.00
57668;BME280;43499;52.366;12.912;2022-09-09T02:23:35;100689.09;;;13.03;100.00
57668;BME280;43499;52.366;12.912;2022-09-09T02:24:41;100692.88;;;13.06;100.00
57668;BME280;43499;52.366;12.912;2022-09-09T02:25:57;100684.72;;;13.03;100.00
57668;BME280;43499;52.366;12.912;2022-09-09T02:27:01;100689.09;;;13.03;100.00
57668;BME280;43499;52.366;12.912;2022-09-09T02:28:07;100684.03;;;13.06;100.00
57668;BME280;43499;52.366;12.912;2022-09-09T02:29:19;100687.38;;;13.03;100.00
57668;BME280;43499;52.366;12.912;2022-09-09T02:30:23;100685.22;;;12.98;100.00
57668;BME280;43499;52.366;12.912;2022-09-09T02:31:31;100691.28;;;12.96;100.00
57668;BME280;43499;52.366;12.912;2022-09-09T02:32:40;100684.66;;;12.90;100.00
57668;BME280;43499;52.366;12.912;2022-09-09T02:33:52;100686.78;;;12.82;100.00
57668;BME280;43499;52.366;12.912;2022-09-09T02:35:00;100689.13;;;12.91;100.00
57668;BME280;43499;52.366;12.912;2022-09-09T02:36:03;100688.94;;;12.88;100.00
57668;BME280;43499;52.366;12.912;2022-09-09T02:37:09;100688.22;;;12.90;100.00
57668;BME280;43499;52.366;12.912;2022-09-09T02:38:14;100691.44;;;12.86;100.00
57668;BME280;43499;52.366;12.912;2022-09-09T02:39:25;100686.88;;;12.84;100.00
57668;BME280;43499;52.366;12.912;2022-09-09T02:40:27;100694.00;;;12.85;100.00
57668;BME280;43499;52.366;12.912;2022-09-09T02:41:35;100688.94;;;12.88;100.00
57668;BME280;43499;52.366;12.912;2022-09-09T02:42:41;100688.09;;;12.89;100.00
57668;BME280;43499;52.366;12.912;2022-09-09T02:43:43;100692.47;;;12.88;100.00
57668;BME280;43499;52.366;12.912;2022-09-09T02:44:47;100695.22;;;12.90;100.00
57668;BME280;43499;52.366;12.912;2022-09-09T02:47:35;100690.22;;;12.81;100.00
57668;BME280;43499;52.366;12.912;2022-09-09T02:49:09;100700.06;;;12.84;100.00
57668;BME280;43499;52.366;12.912;2022-09-09T02:50:21;100700.50;;;12.90;100.00
57668;BME280;43499;52.366;12.912;2022-09-09T02:51:33;100700.34;;;13.00;100.00
57668;BME280;43499;52.366;12.912;2022-09-09T02:52:47;100700.00;;;12.95;100.00
57668;BME280;43499;52.366;12.912;2022-09-09T02:53:59;100704.06;;;12.90;100.00
57668;BME280;43499;52.366;12.912;2022-09-09T02:56:18;100699.50;;;12.88;100.00
57668;BME280;43499;52.366;12.912;2022-09-09T02:56:54;100707.25;;;12.98;100.00
57668;BME280;43499;52.366;12.912;2022-09-09T02:58:05;100696.00;;;13.01;100.00
57668;BME280;43499;52.366;12.912;2022-09-09T02:59:09;100700.13;;;12.97;100.00
57668;BME280;43499;52.366;12.912;2022-09-09T03:00:11;100699.59;;;12.89;100.00
57668;BME280;43499;52.366;12.912;2022-09-09T03:01:13;100697.97;;;12.91;100.00
57668;BME280;43499;52.366;12.912;2022-09-09T03:02:23;100703.84;;;12.87;100.00
57668;BME280;43499;52.366;12.912;2022-09-09T03:03:53;100703.84;;;12.87;100.00
57668;BME280;43499;52.366;12.912;2022-09-09T03:04:56;100702.00;;;12.86;100.00
57668;BME280;43499;52.366;12.912;2022-09-09T03:05:57;100704.63;;;12.86;100.00
57668;BME280;43499;52.366;12.912;2022-09-09T03:06:58;100697.84;;;12.90;100.00
57668;BME280;43499;52.366;12.912;2022-09-09T03:08:00;100705.34;;;12.84;100.00
57668;BME280;43499;52.366;12.912;2022-09-09T03:09:01;100697.44;;;12.84;100.00
57668;BME280;43499;52.366;12.912;2022-09-09T03:10:04;100708.78;;;12.83;100.00
57668;BME280;43499;52.366;12.912;2022-09-09T03:11:07;100704.78;;;12.88;100.00
57668;BME280;43499;52.366;12.912;2022-09-09T03:12:11;100700.41;;;12.88;100.00
57668;BME280;43499;52.366;12.912;2022-09-09T03:13:13;100705.44;;;12.85;100.00
57668;BME280;43499;52.366;12.912;2022-09-09T03:14:16;100704.22;;;12.80;100.00
57668;BME280;43499;52.366;12.912;2022-09-09T03:15:17;100699.81;;;12.92;100.00
57668;BME280;43499;52.366;12.912;2022-09-09T03:16:19;100704.88;;;12.89;100.00
57668;BME280;43499;52.366;12.912;2022-09-09T03:17:23;100705.75;;;12.90;100.00
57668;BME280;43499;52.366;12.912;2022-09-09T03:18:28;100713.69;;;12.90;100.00
57668;BME280;43499;52.366;12.912;2022-09-09T03:19:30;100707.03;;;12.95;100.00
57668;BME280;43499;52.366;12.912;2022-09-09T03:20:32;100714.38;;;12.87;100.00
57668;BME280;43499;52.366;12.912;2022-09-09T03:21:33;100706.16;;;12.83;100.00
57668;BME280;43499;52.366;12.912;2022-09-09T03:22:34;100710.63;;;12.84;100.00
57668;BME280;43499;52.366;12.912;2022-09-09T03:23:38;100721.97;;;12.83;100.00
57668;BME280;43499;52.366;12.912;2022-09-09T03:24:56;100714.78;;;12.80;100.00
57668;BME280;43499;52.366;12.912;2022-09-09T03:25:57;100721.06;;;12.82;100.00
57668;BME280;43499;52.366;12.912;2022-09-09T03:27:21;100713.63;;;12.76;100.00
57668;BME280;43499;52.366;12.912;2022-09-09T03:28:24;100720.84;;;12.79;100.00
57668;BME280;43499;52.366;12.912;2022-09-09T03:29:36;100718.44;;;12.82;100.00
57668;BME280;43499;52.366;12.912;2022-09-09T03:30:40;100709.22;;;12.89;100.00
57668;BME280;43499;52.366;12.912;2022-09-09T03:31:42;100709.13;;;12.87;100.00
57668;BME280;43499;52.366;12.912;2022-09-09T03:32:46;100708.22;;;12.87;100.00
57668;BME280;43499;52.366;12.912;2022-09-09T03:35:32;100714.97;;;12.83;100.00
57668;BME280;43499;52.366;12.912;2022-09-09T03:36:36;100709.75;;;12.96;100.00
57668;BME280;43499;52.366;12.912;2022-09-09T03:37:55;100713.19;;;12.95;100.00
57668;BME280;43499;52.366;12.912;2022-09-09T03:39:14;100705.13;;;12.80;100.00
57668;BME280;43499;52.366;12.912;2022-09-09T03:40:51;100717.19;;;12.77;100.00
57668;BME280;43499;52.366;12.912;2022-09-09T03:41:52;100711.81;;;12.75;100.00
57668;BME280;43499;52.366;12.912;2022-09-09T03:42:55;100722.53;;;12.78;100.00
57668;BME280;43499;52.366;12.912;2022-09-09T03:43:56;100722.69;;;12.80;100.00
57668;BME280;43499;52.366;12.912;2022-09-09T03:46:28;100715.81;;;12.82;100.00
57668;BME280;43499;52.366;12.912;2022-09-09T03:47:38;100713.50;;;12.75;100.00
57668;BME280;43499;52.366;12.912;2022-09-09T03:48:46;100713.63;;;12.76;100.00
57668;BME280;43499;52.366;12.912;2022-09-09T03:49:59;100713.72;;;12.78;100.00
57668;BME280;43499;52.366;12.912;2022-09-09T03:51:00;100717.28;;;12.78;100.00
57668;BME280;43499;52.366;12.912;2022-09-09T03:52:02;100708.69;;;12.69;100.00
57668;BME280;43499;52.366;12.912;2022-09-09T03:53:04;100712.38;;;12.71;100.00
57668;BME280;43499;52.366;12.912;2022-09-09T03:54:09;100710.63;;;12.72;100.00
57668;BME280;43499;52.366;12.912;2022-09-09T03:55:32;100714.69;;;12.67;100.00
57668;BME280;43499;52.366;12.912;2022-09-09T03:56:47;100711.72;;;12.62;100.00
57668;BME280;43499;52.366;12.912;2022-09-09T03:57:50;100715.16;;;12.61;100.00
57668;BME280;43499;52.366;12.912;2022-09-09T03:59:02;100710.31;;;12.67;100.00
57668;BME280;43499;52.366;12.912;2022-09-09T04:00:05;100707.19;;;12.73;100.00
57668;BME280;43499;52.366;12.912;2022-09-09T04:03:13;100711.31;;;12.81;100.00
57668;BME280;43499;52.366;12.912;2022-09-09T04:04:37;100713.50;;;12.75;100.00
57668;BME280;43499;52.366;12.912;2022-09-09T04:05:39;100713.97;;;12.69;100.00
57668;BME280;43499;52.366;12.912;2022-09-09T04:06:43;100708.00;;;12.72;100.00
57668;BME280;43499;52.366;12.912;2022-09-09T04:07:44;100713.50;;;12.75;100.00
57668;BME280;43499;52.366;12.912;2022-09-09T04:08:45;100714.44;;;12.75;100.00
57668;BME280;43499;52.366;12.912;2022-09-09T04:09:56;100713.28;;;12.72;100.00
57668;BME280;43499;52.366;12.912;2022-09-09T04:11:04;100706.53;;;12.75;100.00
57668;BME280;43499;52.366;12.912;2022-09-09T04:12:07;100709.19;;;12.63;100.00
57668;BME280;43499;52.366;12.912;2022-09-09T04:13:09;100716.28;;;12.64;100.00
57668;BME280;43499;52.366;12.912;2022-09-09T04:14:10;100716.66;;;12.57;100.00
57668;BME280;43499;52.366;12.912;2022-09-09T04:15:11;100714.13;;;12.59;100.00
57668;BME280;43499;52.366;12.912;2022-09-09T04:16:13;100718.34;;;12.57;100.00
57668;BME280;43499;52.366;12.912;2022-09-09T04:17:16;100711.56;;;12.60;100.00
57668;BME280;43499;52.366;12.912;2022-09-09T04:18:18;100711.94;;;12.53;100.00
57668;BME280;43499;52.366;12.912;2022-09-09T04:19:21;100719.63;;;12.50;100.00
57668;BME280;43499;52.366;12.912;2022-09-09T04:20:23;100724.34;;;12.54;100.00
57668;BME280;43499;52.366;12.912;2022-09-09T04:21:24;100719.06;;;12.54;100.00
57668;BME280;43499;52.366;12.912;2022-09-09T04:22:25;100719.28;;;12.45;100.00
57668;BME280;43499;52.366;12.912;2022-09-09T04:23:28;100725.50;;;12.46;100.00
57668;BME280;43499;52.366;12.912;2022-09-09T04:24:33;100725.94;;;12.52;100.00
57668;BME280;43499;52.366;12.912;2022-09-09T04:25:35;100721.38;;;12.49;100.00
57668;BME280;43499;52.366;12.912;2022-09-09T04:26:37;100725.47;;;12.58;100.00
57668;BME280;43499;52.366;12.912;2022-09-09T04:27:38;100725.47;;;12.58;100.00
57668;BME280;43499;52.366;12.912;2022-09-09T04:28:39;100724.66;;;12.59;100.00
57668;BME280;43499;52.366;12.912;2022-09-09T04:29:46;100722.25;;;12.62;100.00
57668;BME280;43499;52.366;12.912;2022-09-09T04:30:50;100722.03;;;12.59;100.00
57668;BME280;43499;52.366;12.912;2022-09-09T04:31:53;100721.94;;;12.57;100.00
57668;BME280;43499;52.366;12.912;2022-09-09T04:32:54;100730.03;;;12.60;100.00
57668;BME280;43499;52.366;12.912;2022-09-09T04:33:55;100725.47;;;12.58;100.00
57668;BME280;43499;52.366;12.912;2022-09-09T04:34:57;100727.41;;;12.60;100.00
57668;BME280;43499;52.366;12.912;2022-09-09T04:36:11;100724.28;;;12.66;100.00
57668;BME280;43499;52.366;12.912;2022-09-09T04:37:49;100728.09;;;12.70;100.00
57668;BME280;43499;52.366;12.912;2022-09-09T04:39:23;100735.88;;;12.68;100.00
57668;BME280;43499;52.366;12.912;2022-09-09T04:40:25;100724.66;;;12.71;100.00
57668;BME280;43499;52.366;12.912;2022-09-09T04:41:41;100725.66;;;12.73;100.00
57668;BME280;43499;52.366;12.912;2022-09-09T04:42:51;100732.56;;;12.71;100.00
57668;BME280;43499;52.366;12.912;2022-09-09T04:44:06;100727.72;;;12.77;100.00
57668;BME280;43499;52.366;12.912;2022-09-09T04:45:08;100734.50;;;12.73;100.00
57668;BME280;43499;52.366;12.912;2022-09-09T04:46:11;100732.09;;;12.76;100.00
57668;BME280;43499;52.366;12.912;2022-09-09T04:47:12;100735.31;;;12.72;100.00
57668;BME280;43499;52.366;12.912;2022-09-09T04:50:38;100745.38;;;12.78;100.00
57668;BME280;43499;52.366;12.912;2022-09-09T04:51:56;100735.63;;;12.77;100.00
57668;BME280;43499;52.366;12.912;2022-09-09T04:53:04;100737.47;;;12.78;100.00
57668;BME280;43499;52.366;12.912;2022-09-09T04:54:06;100738.84;;;12.85;100.00
57668;BME280;43499;52.366;12.912;2022-09-09T04:55:08;100737.44;;;12.90;100.00
57668;BME280;43499;52.366;12.912;2022-09-09T04:56:13;100735.88;;;12.80;100.00
57668;BME280;43499;52.366;12.912;2022-09-09T04:57:18;100739.41;;;12.80;100.00
57668;BME280;43499;52.366;12.912;2022-09-09T04:58:20;100730.44;;;12.90;100.00
57668;BME280;43499;52.366;12.912;2022-09-09T04:59:24;100739.50;;;12.94;100.00
57668;BME280;43499;52.366;12.912;2022-09-09T05:00:29;100730.06;;;12.98;100.00
57668;BME280;43499;52.366;12.912;2022-09-09T05:01:44;100724.56;;;12.94;100.00
57668;BME280;43499;52.366;12.912;2022-09-09T05:02:46;100729.00;;;13.07;100.00
57668;BME280;43499;52.366;12.912;2022-09-09T05:03:48;100731.31;;;13.03;100.00
57668;BME280;43499;52.366;12.912;2022-09-09T05:04:52;100728.13;;;12.95;100.00
57668;BME280;43499;52.366;12.912;2022-09-09T05:05:53;100727.75;;;13.02;100.00
57668;BME280;43499;52.366;12.912;2022-09-09T05:06:55;100735.81;;;13.04;100.00
57668;BME280;43499;52.366;12.912;2022-09-09T05:08:05;100729.72;;;13.05;100.00
57668;BME280;43499;52.366;12.912;2022-09-09T05:09:14;100727.06;;;13.05;100.00
57668;BME280;43499;52.366;12.912;2022-09-09T05:10:25;100722.13;;;13.09;100.00
57668;BME280;43499;52.366;12.912;2022-09-09T05:11:34;100729.66;;;13.17;100.00
57668;BME280;43499;52.366;12.912;2022-09-09T05:12:58;100729.16;;;13.22;100.00
57668;BME280;43499;52.366;12.912;2022-09-09T05:14:02;100731.22;;;13.26;100.00
57668;BME280;43499;52.366;12.912;2022-09-09T05:15:05;100726.69;;;13.12;100.00
57668;BME280;43499;52.366;12.912;2022-09-09T05:16:06;100729.81;;;13.06;100.00
57668;BME280;43499;52.366;12.912;2022-09-09T05:17:08;100734.78;;;13.02;100.00
57668;BME280;43499;52.366;12.912;2022-09-09T05:18:14;100727.50;;;13.11;100.00
57668;BME280;43499;52.366;12.912;2022-09-09T05:19:15;100732.88;;;13.12;100.00
57668;BME280;43499;52.366;12.912;2022-09-09T05:20:22;100731.00;;;13.23;100.00
57668;BME280;43499;52.366;12.912;2022-09-09T05:21:24;100732.88;;;13.12;100.00
57668;BME280;43499;52.366;12.912;2022-09-09T05:22:27;100727.72;;;13.14;100.00
57668;BME280;43499;52.366;12.912;2022-09-09T05:23:28;100727.06;;;13.30;100.00
57668;BME280;43499;52.366;12.912;2022-09-09T05:24:29;100727.66;;;13.26;100.00
57668;BME280;43499;52.366;12.912;2022-09-09T05:25:33;100730.78;;;13.20;100.00
57668;BME280;43499;52.366;12.912;2022-09-09T05:27:02;100726.84;;;13.27;100.00
57668;BME280;43499;52.366;12.912;2022-09-09T05:28:29;100729.69;;;13.42;100.00
57668;BME280;43499;52.366;12.912;2022-09-09T05:29:46;100722.25;;;13.62;100.00
57668;BME280;43499;52.366;12.912;2022-09-09T05:31:03;100731.28;;;13.65;100.00
57668;BME280;43499;52.366;12.912;2022-09-09T05:32:15;100727.94;;;13.68;100.00
57668;BME280;43499;52.366;12.912;2022-09-09T05:33:25;100729.00;;;13.58;100.00
57668;BME280;43499;52.366;12.912;2022-09-09T05:34:29;100734.63;;;13.63;100.00
57668;BME280;43499;52.366;12.912;2022-09-09T05:35:30;100742.78;;;13.79;100.00
57668;BME280;43499;52.366;12.912;2022-09-09T05:36:31;100743.31;;;13.87;100.00
57668;BME280;43499;52.366;12.912;2022-09-09T05:39:26;100742.53;;;14.28;98.52
57668;BME280;43499;52.366;12.912;2022-09-09T05:42:23;100745.88;;;14.79;96.03
57668;BME280;43499;52.366;12.912;2022-09-09T05:43:50;100743.88;;;15.04;94.89
57668;BME280;43499;52.366;12.912;2022-09-09T05:45:03;100740.84;;;14.98;94.01
57668;BME280;43499;52.366;12.912;2022-09-09T05:46:18;100754.53;;;14.77;91.67
57668;BME280;43499;52.366;12.912;2022-09-09T05:47:24;100749.56;;;14.41;94.09
57668;BME280;43499;52.366;12.912;2022-09-09T05:48:46;100756.16;;;14.34;95.04
57668;BME280;43499;52.366;12.912;2022-09-09T05:50:52;100747.28;;;14.61;92.79
57668;BME280;43499;52.366;12.912;2022-09-09T05:52:03;100746.78;;;14.40;94.03
57668;BME280;43499;52.366;12.912;2022-09-09T05:53:08;100751.88;;;14.63;94.41
57668;BME280;43499;52.366;12.912;2022-09-09T05:54:16;100750.97;;;14.76;92.91
57668;BME280;43499;52.366;12.912;2022-09-09T05:55:20;100755.75;;;14.82;92.32
57668;BME280;43499;52.366;12.912;2022-09-09T05:56:23;100751.56;;;14.59;92.94
57668;BME280;43499;52.366;12.912;2022-09-09T05:57:26;100757.78;;;14.73;93.65
57668;BME280;43499;52.366;12.912;2022-09-09T05:58:27;100755.13;;;14.86;93.04
57668;BME280;43499;52.366;12.912;2022-09-09T05:59:28;100754.31;;;15.16;92.27
57668;BME280;43499;52.366;12.912;2022-09-09T06:00:31;100767.16;;;14.81;91.05
57668;BME280;43499;52.366;12.912;2022-09-09T06:01:35;100764.47;;;14.94;92.06
57668;BME280;43499;52.366;12.912;2022-09-09T06:02:37;100764.16;;;14.90;91.24
57668;BME280;43499;52.366;12.912;2022-09-09T06:03:40;100764.41;;;15.08;90.21
57668;BME280;43499;52.366;12.912;2022-09-09T06:04:42;100757.31;;;15.07;90.26
57668;BME280;43499;52.366;12.912;2022-09-09T06:05:43;100764.59;;;15.24;90.57
57668;BME280;43499;52.366;12.912;2022-09-09T06:06:44;100763.00;;;15.13;91.50
57668;BME280;43499;52.366;12.912;2022-09-09T06:07:52;100759.63;;;15.16;89.24
57668;BME280;43499;52.366;12.912;2022-09-09T06:08:55;100766.63;;;15.29;89.79
57668;BME280;43499;52.366;12.912;2022-09-09T06:09:58;100766.22;;;15.22;89.55
57668;BME280;43499;52.366;12.912;2022-09-09T06:11:10;100770.84;;;15.40;89.15
57668;BME280;43499;52.366;12.912;2022-09-09T06:12:12;100772.69;;;15.41;89.64
57668;BME280;43499;52.366;12.912;2022-09-09T06:13:13;100768.44;;;15.58;88.88
57668;BME280;43499;52.366;12.912;2022-09-09T06:14:15;100768.38;;;15.43;88.40
57668;BME280;43499;52.366;12.912;2022-09-09T06:15:20;100769.28;;;15.29;88.75
57668;BME280;43499;52.366;12.912;2022-09-09T06:16:23;100770.66;;;15.37;89.39
57668;BME280;43499;52.366;12.912;2022-09-09T06:17:28;100772.63;;;15.26;89.05
57668;BME280;43499;52.366;12.912;2022-09-09T06:18:29;100770.63;;;15.22;89.52
57668;BME280;43499;52.366;12.912;2022-09-09T06:19:30;100772.97;;;15.17;90.64
57668;BME280;43499;52.366;12.912;2022-09-09T06:20:33;100773.41;;;14.96;90.25
57668;BME280;43499;52.366;12.912;2022-09-09T06:21:36;100777.78;;;15.09;90.64
57668;BME280;43499;52.366;12.912;2022-09-09T06:22:40;100776.75;;;15.07;91.02
57668;BME280;43499;52.366;12.912;2022-09-09T06:23:42;100772.97;;;15.17;91.48
57668;BME280;43499;52.366;12.912;2022-09-09T06:24:44;100770.66;;;15.08;90.95
57668;BME280;43499;52.366;12.912;2022-09-09T06:25:45;100777.97;;;15.41;90.18
57668;BME280;43499;52.366;12.912;2022-09-09T06:26:46;100777.25;;;15.43;89.49
57668;BME280;43499;52.366;12.912;2022-09-09T06:27:53;100772.69;;;15.41;89.84
57668;BME280;43499;52.366;12.912;2022-09-09T06:28:55;100776.25;;;15.56;88.92
57668;BME280;43499;52.366;12.912;2022-09-09T06:29:58;100775.38;;;15.56;88.65
57668;BME280;43499;52.366;12.912;2022-09-09T06:31:08;100763.88;;;15.42;88.40
57668;BME280;43499;52.366;12.912;2022-09-09T06:32:09;100767.63;;;15.74;88.96